createdAt,value
2022-10-12T00:01:57.734Z,94912.66
2022-10-12T00:04:24.150Z,94911.91
2022-10-12T00:06:50.569Z,94914.69
2022-10-12T00:09:17.056Z,94911.81
2022-10-12T00:11:43.890Z,94904.75
2022-10-12T00:14:10.315Z,94906.00
2022-10-12T00:16:36.890Z,94902.03
2022-10-12T00:19:03.477Z,94902.03
2022-10-12T00:21:30.429Z,94901.53
2022-10-12T00:23:58.889Z,94904.66
2022-10-12T00:26:26.398Z,94912.50
2022-10-12T00:28:59.409Z,94910.06
2022-10-12T00:31:27.434Z,94907.44
2022-10-12T00:33:55.043Z,94908.22
2022-10-12T00:36:33.920Z,94908.22
2022-10-12T00:39:01.552Z,94904.56
2022-10-12T00:41:35.842Z,94913.47
2022-10-12T00:44:02.674Z,94915.91
2022-10-12T00:46:42.085Z,94902.41
2022-10-12T00:49:14.259Z,94905.88
2022-10-12T00:51:43.545Z,94896.56
2022-10-12T00:54:15.216Z,94895.78
2022-10-12T00:56:44.025Z,94900.06
2022-10-12T00:59:18.844Z,94904.50
2022-10-12T01:01:45.662Z,94897.72
2022-10-12T01:04:12.429Z,94898.28
2022-10-12T01:06:39.074Z,94898.28
2022-10-12T01:09:05.461Z,94900.91
2022-10-12T01:11:31.825Z,94896.75
2022-10-12T01:13:58.418Z,94886.06
2022-10-12T01:16:37.211Z,94890.59
2022-10-12T01:19:15.613Z,94892.91
2022-10-12T01:21:48.253Z,94898.44
2022-10-12T01:24:34.490Z,94897.41
2022-10-12T01:27:03.235Z,94901.56
2022-10-12T01:30:10.069Z,94891.31
2022-10-12T01:32:48.292Z,94893.63
2022-10-12T01:35:33.663Z,94886.06
2022-10-12T01:38:09.015Z,94892.09
2022-10-12T01:40:51.096Z,94886.84
2022-10-12T01:43:18.336Z,94886.94
2022-10-12T01:45:44.825Z,94886.25
2022-10-12T01:48:11.334Z,94886.78
2022-10-12T01:50:56.039Z,94885.22
2022-10-12T01:53:38.953Z,94880.84
2022-10-12T01:56:26.918Z,94881.44
2022-10-12T01:59:21.168Z,94885.66
2022-10-12T02:02:05.857Z,94888.09
2022-10-12T02:04:44.286Z,94879.81
2022-10-12T02:07:20.993Z,94881.63
2022-10-12T02:09:47.883Z,94880.38
2022-10-12T02:12:19.257Z,94887.72
2022-10-12T02:14:49.962Z,94886.47
2022-10-12T02:17:20.371Z,94880.75
2022-10-12T02:19:51.646Z,94879.25
2022-10-12T02:22:18.141Z,94878.78
2022-10-12T02:24:49.010Z,94875.16
2022-10-12T02:27:18.269Z,94875.94
2022-10-12T02:29:47.746Z,94872.06
2022-10-12T02:32:23.819Z,94866.28
2022-10-12T02:35:08.631Z,94871.50
2022-10-12T02:37:40.605Z,94872.84
2022-10-12T02:40:17.694Z,94867.91
2022-10-12T02:43:09.899Z,94868.09
2022-10-12T02:45:39.887Z,94868.38
2022-10-12T02:48:09.356Z,94869.94
2022-10-12T02:50:36.388Z,94867.81
2022-10-12T02:53:03.264Z,94866.53
2022-10-12T02:55:31.049Z,94866.84
2022-10-12T02:57:57.474Z,94865.56
2022-10-12T03:00:23.929Z,94862.75
2022-10-12T03:02:50.323Z,94871.44
2022-10-12T03:05:16.741Z,94870.66
2022-10-12T03:07:43.172Z,94860.22
2022-10-12T03:10:09.832Z,94857.13
2022-10-12T03:12:36.222Z,94869.09
2022-10-12T03:15:02.633Z,94865.22
2022-10-12T03:17:28.998Z,94868.88
2022-10-12T03:19:55.440Z,94870.22
2022-10-12T03:22:21.945Z,94872.81
2022-10-12T03:24:48.491Z,94868.69
2022-10-12T03:27:14.895Z,94864.03
2022-10-12T03:29:41.265Z,94878.06
2022-10-12T03:32:07.628Z,94874.88
2022-10-12T03:34:34.104Z,94873.84
2022-10-12T03:37:00.583Z,94880.88
2022-10-12T03:39:26.992Z,94872.06
2022-10-12T03:41:53.354Z,94883.00
2022-10-12T03:44:19.839Z,94875.44
2022-10-12T03:46:46.241Z,94881.94
2022-10-12T03:49:12.643Z,94876.44
2022-10-12T03:51:39.000Z,94888.16
2022-10-12T03:54:05.451Z,94879.53
2022-10-12T03:56:31.847Z,94885.78
2022-10-12T03:58:58.324Z,94873.53
2022-10-12T04:01:25.641Z,94878.41
2022-10-12T04:03:52.064Z,94883.31
2022-10-12T04:06:18.522Z,94889.28
2022-10-12T04:08:50.510Z,94888.78
2022-10-12T04:11:17.537Z,94878.34
2022-10-12T04:13:44.073Z,94885.22
2022-10-12T04:16:10.674Z,94881.81
2022-10-12T04:18:37.061Z,94881.34
2022-10-12T04:21:08.835Z,94874.31
2022-10-12T04:23:35.190Z,94874.88
2022-10-12T04:26:01.542Z,94885.06
2022-10-12T04:28:27.928Z,94883.22
2022-10-12T04:30:54.439Z,94874.31
2022-10-12T04:33:20.803Z,94885.78
2022-10-12T04:35:47.250Z,94889.44
2022-10-12T04:38:13.891Z,94888.38
2022-10-12T04:40:40.376Z,94878.19
2022-10-12T04:43:06.714Z,94881.59
2022-10-12T04:45:33.081Z,94889.72
2022-10-12T04:47:59.447Z,94884.78
2022-10-12T04:50:29.825Z,94882.22
2022-10-12T04:52:56.484Z,94883.78
2022-10-12T04:55:22.895Z,94886.91
2022-10-12T04:57:50.050Z,94884.28
2022-10-12T05:00:17.208Z,94881.66
2022-10-12T05:02:43.688Z,94884.28
2022-10-12T05:05:10.576Z,94883.50
2022-10-12T05:07:37.229Z,94886.56
2022-10-12T05:10:04.274Z,94885.97
2022-10-12T05:12:30.690Z,94886.19
2022-10-12T05:14:57.053Z,94888.53
2022-10-12T05:17:23.458Z,94889.78
2022-10-12T05:19:49.895Z,94881.66
2022-10-12T05:22:16.306Z,94883.72
2022-10-12T05:24:42.685Z,94884.00
2022-10-12T05:27:09.064Z,94889.25
2022-10-12T05:29:35.475Z,94884.50
2022-10-12T05:32:01.856Z,94892.03
2022-10-12T05:34:28.247Z,94889.94
2022-10-12T05:36:55.210Z,94892.75
2022-10-12T05:39:21.585Z,94900.03
2022-10-12T05:41:47.997Z,94895.88
2022-10-12T05:44:14.365Z,94891.69
2022-10-12T05:46:40.747Z,94894.00
2022-10-12T05:49:08.057Z,94891.91
2022-10-12T05:51:34.448Z,94899.44
2022-10-12T05:54:00.861Z,94895.56
2022-10-12T05:56:27.220Z,94895.56
2022-10-12T05:58:53.589Z,94896.84
2022-10-12T06:01:20.036Z,94905.16
2022-10-12T06:03:46.386Z,94902.00
2022-10-12T06:06:12.960Z,94905.38
2022-10-12T06:08:39.527Z,94908.78
2022-10-12T06:11:06.643Z,94907.44
2022-10-12T06:13:33.016Z,94908.22
2022-10-12T06:15:59.486Z,94911.88
2022-10-12T06:18:25.867Z,94914.50
2022-10-12T06:21:14.898Z,94915.28
2022-10-12T06:23:41.104Z,94917.59
2022-10-12T06:26:07.525Z,94914.41
2022-10-12T06:28:34.055Z,94915.69
2022-10-12T06:31:01.036Z,94916.47
2022-10-12T06:33:28.189Z,94920.44
2022-10-12T06:35:55.331Z,94924.78
2022-10-12T06:38:22.616Z,94926.84
2022-10-12T06:40:49.345Z,94923.19
2022-10-12T06:43:15.734Z,94934.63
2022-10-12T06:45:42.129Z,94924.94
2022-10-12T06:48:08.689Z,94932.03
2022-10-12T06:50:35.241Z,94924.19
2022-10-12T06:53:01.786Z,94930.72
2022-10-12T06:55:28.431Z,94932.78
2022-10-12T06:57:55.611Z,94928.84
2022-10-12T07:00:22.257Z,94920.47
2022-10-12T07:02:50.059Z,94931.72
2022-10-12T07:05:16.737Z,94929.41
2022-10-12T07:07:43.229Z,94931.50
2022-10-12T07:10:09.902Z,94934.63
2022-10-12T07:12:37.419Z,94935.13
2022-10-12T07:15:05.440Z,94929.84
2022-10-12T07:17:31.829Z,94936.06
2022-10-12T07:19:58.198Z,94938.09
2022-10-12T07:22:24.598Z,94930.53
2022-10-12T07:24:50.953Z,94935.19
2022-10-12T07:27:17.316Z,94940.91
2022-10-12T07:29:43.757Z,94933.53
2022-10-12T07:32:10.183Z,94937.84
2022-10-12T07:34:36.633Z,94936.41
2022-10-12T07:37:03.033Z,94945.44
2022-10-12T07:39:29.742Z,94939.38
2022-10-12T07:41:56.702Z,94944.28
2022-10-12T07:44:24.377Z,94936.94
2022-10-12T07:46:51.445Z,94932.47
2022-10-12T07:49:18.401Z,94935.88
2022-10-12T07:51:46.225Z,94940.22
2022-10-12T07:54:19.008Z,94934.44
2022-10-12T07:56:46.986Z,94930.97
2022-10-12T07:59:13.367Z,94934.25
2022-10-12T08:01:39.788Z,94926.00
2022-10-12T08:04:06.241Z,94927.47
2022-10-12T08:06:34.044Z,94937.84
2022-10-12T08:09:01.554Z,94931.56
2022-10-12T08:11:28.719Z,94931.75
2022-10-12T08:13:55.986Z,94935.53
2022-10-12T08:16:22.746Z,94940.69
2022-10-12T08:18:49.216Z,94936.81
2022-10-12T08:21:17.203Z,94941.94
2022-10-12T08:23:46.828Z,94938.75
2022-10-12T08:26:14.621Z,94945.53
2022-10-12T08:28:41.215Z,94942.13
2022-10-12T08:31:13.891Z,94941.34
2022-10-12T08:33:40.398Z,94945.53
2022-10-12T08:36:07.531Z,94943.41
2022-10-12T08:38:38.542Z,94940.69
2022-10-12T08:41:19.754Z,94942.63
2022-10-12T08:44:11.669Z,94936.22
2022-10-12T08:46:38.271Z,94936.03
2022-10-12T08:49:12.976Z,94932.72
2022-10-12T08:51:49.724Z,94939.41
2022-10-12T08:54:20.607Z,94937.78
2022-10-12T08:56:47.017Z,94929.53
2022-10-12T08:59:16.533Z,94933.88
2022-10-12T09:01:49.105Z,94933.41
2022-10-12T09:04:34.189Z,94937.09
2022-10-12T09:07:20.625Z,94941.34
2022-10-12T09:10:05.858Z,94931.72
2022-10-12T09:12:52.678Z,94938.50
2022-10-12T09:15:26.865Z,94944.34
2022-10-12T09:17:55.726Z,94943.75
2022-10-12T09:20:47.196Z,94943.00
2022-10-12T09:23:24.978Z,94949.41
2022-10-12T09:26:01.794Z,94953.97
2022-10-12T09:28:37.940Z,94954.56
2022-10-12T09:31:33.175Z,94944.34
2022-10-12T09:34:03.955Z,94953.00
2022-10-12T09:36:48.153Z,94956.88
2022-10-12T09:39:30.846Z,94950.38
2022-10-12T09:41:57.286Z,94953.00
2022-10-12T09:44:36.711Z,94955.63
2022-10-12T09:47:23.687Z,94953.50
2022-10-12T09:49:58.774Z,94949.31
2022-10-12T09:52:29.654Z,94943.50
2022-10-12T09:55:02.541Z,94948.63
2022-10-12T09:57:35.844Z,94944.16
2022-10-12T10:00:08.216Z,94943.56
2022-10-12T10:02:48.456Z,94943.75
2022-10-12T10:05:31.358Z,94950.47
2022-10-12T10:08:23.438Z,94941.66
2022-10-12T10:10:57.012Z,94940.88
2022-10-12T10:13:28.017Z,94939.03
2022-10-12T10:16:06.505Z,94944.16
2022-10-12T10:18:36.309Z,94948.81
2022-10-12T10:21:06.152Z,94941.75
2022-10-12T10:23:44.578Z,94949.28
2022-10-12T10:26:14.619Z,94938.03
2022-10-12T10:28:46.938Z,94950.56
2022-10-12T10:31:13.276Z,94947.94
2022-10-12T10:33:40.806Z,94942.78
2022-10-12T10:36:24.055Z,94947.66
2022-10-12T10:38:59.183Z,94943.94
2022-10-12T10:41:31.404Z,94954.16
2022-10-12T10:43:57.901Z,94947.81
2022-10-12T10:46:27.724Z,94951.69
2022-10-12T10:49:06.587Z,94949.50
2022-10-12T10:52:00.014Z,94959.31
2022-10-12T10:54:30.686Z,94952.97
2022-10-12T10:57:14.582Z,94950.66
2022-10-12T10:59:50.054Z,94948.22
2022-10-12T11:02:38.227Z,94946.09
2022-10-12T11:05:13.335Z,94946.09
2022-10-12T11:07:47.614Z,94936.75
2022-10-12T11:10:27.698Z,94946.06
2022-10-12T11:13:02.993Z,94939.63
2022-10-12T11:15:45.728Z,94936.88
2022-10-12T11:18:33.693Z,94934.94
2022-10-12T11:21:23.627Z,94931.06
2022-10-12T11:24:14.802Z,94936.47
2022-10-12T11:26:49.942Z,94928.91
2022-10-12T11:29:18.035Z,94926.88
2022-10-12T11:32:03.362Z,94929.97
2022-10-12T11:34:37.362Z,94923.97
2022-10-12T11:37:19.123Z,94931.22
2022-10-12T11:39:51.139Z,94918.59
2022-10-12T11:42:30.995Z,94918.59
2022-10-12T11:45:00.625Z,94921.50
2022-10-12T11:47:30.104Z,94915.00
2022-10-12T11:50:07.512Z,94921.34
2022-10-12T11:52:44.985Z,94917.16
2022-10-12T11:55:35.163Z,94921.16
2022-10-12T11:58:13.710Z,94920.19
2022-10-12T12:00:57.145Z,94910.66
2022-10-12T12:03:43.782Z,94911.59
2022-10-12T12:06:28.515Z,94912.25
2022-10-12T12:08:54.825Z,94915.66
2022-10-12T12:11:27.760Z,94914.88
2022-10-12T12:14:26.446Z,94912.25
2022-10-12T12:17:15.256Z,94904.09
2022-10-12T12:19:43.289Z,94906.72
2022-10-12T12:22:32.423Z,94906.13
2022-10-12T12:25:10.330Z,94896.72
2022-10-12T12:27:56.289Z,94899.34
2022-10-12T12:30:38.720Z,94896.13
2022-10-12T12:33:33.155Z,94891.34
2022-10-12T12:36:06.506Z,94898.59
2022-10-12T12:38:37.316Z,94896.59
2022-10-12T12:41:12.667Z,94902.25
2022-10-12T12:44:04.162Z,94909.34
2022-10-12T12:46:52.165Z,94900.50
2022-10-12T12:49:38.227Z,94899.16
2022-10-12T12:52:10.711Z,94902.72
2022-10-12T12:54:53.239Z,94897.97
2022-10-12T12:57:29.186Z,94898.16
2022-10-12T13:00:06.477Z,94896.94
2022-10-12T13:02:57.408Z,94897.09
2022-10-12T13:06:00.885Z,94895.41
2022-10-12T13:08:36.388Z,94898.78
2022-10-12T13:11:24.589Z,94890.94
2022-10-12T13:14:25.185Z,94886.63
2022-10-12T13:17:33.089Z,94880.63
2022-10-12T13:20:09.563Z,94878.88
2022-10-12T13:22:36.158Z,94880.38
2022-10-12T13:25:07.003Z,94883.59
2022-10-12T13:27:44.981Z,94876.31
2022-10-12T13:30:11.793Z,94880.50
2022-10-12T13:32:44.171Z,94879.91
2022-10-12T13:35:29.201Z,94871.44
2022-10-12T13:38:13.881Z,94876.84
2022-10-12T13:40:43.911Z,94871.31
2022-10-12T13:43:47.253Z,94871.78
2022-10-12T13:46:36.214Z,94872.19
2022-10-12T13:49:04.297Z,94864.31
2022-10-12T13:51:31.083Z,94872.69
2022-10-12T13:53:57.824Z,94865.28
2022-10-12T13:56:28.775Z,94863.31
2022-10-12T13:59:05.459Z,94861.75
2022-10-12T14:01:48.309Z,94869.63
2022-10-12T14:04:14.729Z,94847.63
2022-10-12T14:06:41.131Z,94862.47
2022-10-12T14:09:11.554Z,94855.19
2022-10-12T14:11:38.770Z,94859.50
2022-10-12T14:14:06.208Z,94863.19
2022-10-12T14:16:32.616Z,94860.28
2022-10-12T14:19:21.293Z,94858.53
2022-10-12T14:21:49.201Z,94862.25
2022-10-12T14:24:19.189Z,94854.06
2022-10-12T14:26:53.974Z,94849.88
2022-10-12T14:29:42.850Z,94848.84
2022-10-12T14:32:12.282Z,94847.94
2022-10-12T14:34:45.606Z,94850.91
2022-10-12T14:37:15.052Z,94848.94
2022-10-12T14:39:47.118Z,94850.19
2022-10-12T14:42:26.641Z,94846.78
2022-10-12T14:44:53.675Z,94848.03
2022-10-12T14:47:39.887Z,94850.38
2022-10-12T14:50:09.560Z,94855.44
2022-10-12T14:52:41.901Z,94851.56
2022-10-12T14:55:21.459Z,94846.59
2022-10-12T14:57:48.928Z,94854.59
2022-10-12T15:00:29.608Z,94851.69
2022-10-12T15:02:56.371Z,94845.06
2022-10-12T15:05:25.073Z,94848.16
2022-10-12T15:07:52.133Z,94838.72
2022-10-12T15:10:21.497Z,94839.81
2022-10-12T15:12:48.867Z,94838.25
2022-10-12T15:15:30.914Z,94838.44
2022-10-12T15:17:58.336Z,94833.38
2022-10-12T15:20:26.776Z,94848.50
2022-10-12T15:22:53.243Z,94841.13
2022-10-12T15:25:34.950Z,94837.41
2022-10-12T15:28:02.261Z,94831.22
2022-10-12T15:30:28.642Z,94828.13
2022-10-12T15:32:55.011Z,94831.81
2022-10-12T15:35:26.798Z,94833.38
2022-10-12T15:37:56.190Z,94820.53
2022-10-12T15:40:22.849Z,94822.69
2022-10-12T15:42:49.220Z,94827.47
2022-10-12T15:45:26.530Z,94831.63
2022-10-12T15:47:53.606Z,94830.09
2022-10-12T15:50:25.193Z,94823.91
2022-10-12T15:52:51.694Z,94830.69
2022-10-12T15:55:29.721Z,94827.31
2022-10-12T15:57:57.162Z,94827.13
2022-10-12T16:00:26.381Z,94823.72
2022-10-12T16:02:54.029Z,94817.53
2022-10-12T16:05:30.930Z,94818.13
2022-10-12T16:07:58.090Z,94824.56
2022-10-12T16:10:34.662Z,94824.69
2022-10-12T16:13:01.085Z,94833.16
2022-10-12T16:15:31.085Z,94831.13
2022-10-12T16:17:58.477Z,94828.94
2022-10-12T16:20:26.362Z,94833.53
2022-10-12T16:22:52.962Z,94829.75
2022-10-12T16:25:22.172Z,94822.59
2022-10-12T16:27:49.287Z,94836.59
2022-10-12T16:30:15.856Z,94828.88
2022-10-12T16:32:42.291Z,94831.16
2022-10-12T16:35:10.588Z,94844.13
2022-10-12T16:37:37.076Z,94844.88
2022-10-12T16:40:05.175Z,94839.34
2022-10-12T16:42:31.556Z,94840.88
2022-10-12T16:44:58.111Z,94839.03
2022-10-12T16:47:25.523Z,94837.00
2022-10-12T16:49:53.803Z,94845.38
2022-10-12T16:52:24.396Z,94841.66
2022-10-12T16:54:54.942Z,94839.34
2022-10-12T16:57:22.498Z,94832.53
2022-10-12T16:59:49.565Z,94839.16
2022-10-12T17:02:17.606Z,94833.72
2022-10-12T17:04:45.760Z,94833.72
2022-10-12T17:07:12.226Z,94846.81
2022-10-12T17:09:38.589Z,94841.09
2022-10-12T17:12:05.124Z,94845.41
2022-10-12T17:14:31.668Z,94845.69
2022-10-12T17:16:58.067Z,94845.97
2022-10-12T17:19:30.085Z,94846.53
2022-10-12T17:21:59.287Z,94843.16
2022-10-12T17:24:28.408Z,94841.91
2022-10-12T17:26:55.848Z,94847.72
2022-10-12T17:29:23.388Z,94854.78
2022-10-12T17:31:50.500Z,94852.97
2022-10-12T17:34:38.846Z,94850.34
2022-10-12T17:37:08.225Z,94848.31
2022-10-12T17:39:38.232Z,94852.28
2022-10-12T17:42:05.399Z,94852.59
2022-10-12T17:44:32.185Z,94847.16
2022-10-12T17:46:58.898Z,94849.00
2022-10-12T17:49:26.681Z,94852.19
2022-10-12T17:51:53.048Z,94858.59
2022-10-12T17:54:20.984Z,94867.53
2022-10-12T17:56:47.549Z,94864.72
2022-10-12T17:59:16.389Z,94861.91
2022-10-12T18:01:43.107Z,94856.97
2022-10-12T18:04:10.506Z,94849.50
2022-10-12T18:06:36.915Z,94852.13
2022-10-12T18:09:05.265Z,94849.59
2022-10-12T18:11:32.263Z,94854.53
2022-10-12T18:13:58.746Z,94857.47
2022-10-12T18:16:31.448Z,94852.81
2022-10-12T18:18:59.173Z,94858.63
2022-10-12T18:21:27.256Z,94859.28
2022-10-12T18:23:54.385Z,94859.97
2022-10-12T18:26:22.131Z,94864.25
2022-10-12T18:28:55.491Z,94857.03
2022-10-12T18:31:26.179Z,94857.91
2022-10-12T18:33:52.915Z,94866.44
2022-10-12T18:36:20.454Z,94871.75
2022-10-12T18:38:47.397Z,94869.50
2022-10-12T18:41:17.695Z,94863.59
2022-10-12T18:43:44.703Z,94863.41
2022-10-12T18:46:13.937Z,94875.22
2022-10-12T18:48:40.848Z,94866.66
2022-10-12T18:51:15.632Z,94864.66
2022-10-12T18:53:42.162Z,94867.16
2022-10-12T18:56:09.863Z,94864.59
2022-10-12T18:58:38.163Z,94863.06
2022-10-12T19:01:12.478Z,94866.75
2022-10-12T19:03:39.111Z,94871.75
2022-10-12T19:06:09.078Z,94867.13
2022-10-12T19:08:36.700Z,94862.16
2022-10-12T19:11:05.551Z,94864.56
2022-10-12T19:13:32.054Z,94873.75
2022-10-12T19:16:03.840Z,94864.44
2022-10-12T19:18:30.251Z,94855.03
2022-10-12T19:20:56.658Z,94865.75
2022-10-12T19:23:23.029Z,94859.56
2022-10-12T19:25:49.598Z,94857.53
2022-10-12T19:28:16.054Z,94856.53
2022-10-12T19:30:42.449Z,94855.06
2022-10-12T19:33:08.835Z,94855.13
2022-10-12T19:35:38.545Z,94854.13
2022-10-12T19:38:05.428Z,94854.69
2022-10-12T19:40:34.714Z,94850.03
2022-10-12T19:43:01.469Z,94849.53
2022-10-12T19:45:27.820Z,94851.38
2022-10-12T19:47:54.201Z,94845.66
2022-10-12T19:50:20.593Z,94843.06
2022-10-12T19:52:47.005Z,94853.28
2022-10-12T19:55:13.512Z,94853.06
2022-10-12T19:57:40.135Z,94863.06
2022-10-12T20:00:08.591Z,94858.72
2022-10-12T20:02:38.569Z,94857.22
2022-10-12T20:05:05.262Z,94859.31
2022-10-12T20:07:31.622Z,94861.00
2022-10-12T20:09:58.012Z,94872.00
2022-10-12T20:12:25.195Z,94860.63
2022-10-12T20:14:51.616Z,94866.41
2022-10-12T20:17:18.037Z,94872.16
2022-10-12T20:19:44.446Z,94866.47
2022-10-12T20:22:10.830Z,94872.72
2022-10-12T20:24:37.251Z,94872.72
2022-10-12T20:27:03.693Z,94870.91
2022-10-12T20:29:30.089Z,94877.19
2022-10-12T20:31:56.489Z,94883.75
2022-10-12T20:34:22.877Z,94874.34
2022-10-12T20:36:49.358Z,94876.97
2022-10-12T20:39:15.784Z,94865.75
2022-10-12T20:41:42.155Z,94872.53
2022-10-12T20:44:10.154Z,94865.25
2022-10-12T20:46:36.958Z,94861.84
2022-10-12T20:49:04.016Z,94868.13
2022-10-12T20:51:33.681Z,94870.22
2022-10-12T20:54:01.010Z,94873.38
2022-10-12T20:56:31.697Z,94863.78
2022-10-12T20:58:58.587Z,94860.47
2022-10-12T21:01:26.115Z,94860.47
2022-10-12T21:03:53.452Z,94858.41
2022-10-12T21:06:21.448Z,94855.84
2022-10-12T21:08:53.145Z,94853.78
2022-10-12T21:11:20.123Z,94854.81
2022-10-12T21:13:47.030Z,94855.38
2022-10-12T21:16:14.071Z,94860.09
2022-10-12T21:18:41.557Z,94849.16
2022-10-12T21:21:12.175Z,94853.38
2022-10-12T21:23:43.739Z,94844.50
2022-10-12T21:26:12.390Z,94851.28
2022-10-12T21:28:39.346Z,94847.91
2022-10-12T21:31:06.462Z,94847.13
2022-10-12T21:33:34.278Z,94833.63
2022-10-12T21:36:11.923Z,94837.19
2022-10-12T21:38:39.408Z,94838.75
2022-10-12T21:41:07.427Z,94831.41
2022-10-12T21:43:34.972Z,94839.47
2022-10-12T21:46:09.883Z,94840.19
2022-10-12T21:48:36.712Z,94842.53
2022-10-12T21:51:04.083Z,94823.09
2022-10-12T21:53:30.671Z,94833.97
2022-10-12T21:55:57.352Z,94833.72
2022-10-12T21:58:23.786Z,94846.41
2022-10-12T22:00:50.313Z,94848.75
2022-10-12T22:03:16.704Z,94846.63
2022-10-12T22:05:44.424Z,94839.81
2022-10-12T22:08:10.940Z,94832.22
2022-10-12T22:10:38.904Z,94831.81
2022-10-12T22:13:06.846Z,94827.25
2022-10-12T22:15:34.250Z,94827.75
2022-10-12T22:18:09.529Z,94828.66
2022-10-12T22:20:36.999Z,94831.94
2022-10-12T22:23:04.006Z,94830.53
2022-10-12T22:25:30.433Z,94824.69
2022-10-12T22:27:56.799Z,94823.56
2022-10-12T22:30:23.174Z,94821.94
2022-10-12T22:32:49.572Z,94813.06
2022-10-12T22:35:16.057Z,94817.91
2022-10-12T22:37:43.069Z,94813.94
2022-10-12T22:40:10.015Z,94813.41
2022-10-12T22:42:36.399Z,94810.03
2022-10-12T22:45:04.135Z,94817.56
2022-10-12T22:47:30.519Z,94811.78
2022-10-12T22:49:58.590Z,94804.44
2022-10-12T22:52:24.965Z,94798.94
2022-10-12T22:54:51.358Z,94797.06
2022-10-12T22:57:17.786Z,94809.88
2022-10-12T22:59:44.156Z,94806.19
2022-10-12T23:02:10.571Z,94801.47
2022-10-12T23:04:36.960Z,94802.75
2022-10-12T23:07:03.319Z,94802.75
2022-10-12T23:09:29.734Z,94797.72
2022-10-12T23:11:56.438Z,94799.03
2022-10-12T23:14:22.788Z,94799.03
2022-10-12T23:16:49.165Z,94801.66
2022-10-12T23:19:15.623Z,94795.94
2022-10-12T23:21:42.028Z,94789.38
2022-10-12T23:24:09.419Z,94796.16
2022-10-12T23:26:35.831Z,94802.16
2022-10-12T23:29:02.239Z,94805.25
2022-10-12T23:31:30.470Z,94810.97
2022-10-12T23:34:04.913Z,94806.81
2022-10-12T23:36:33.507Z,94810.50
2022-10-12T23:39:01.128Z,94808.94
2022-10-12T23:41:27.567Z,94802.94
2022-10-12T23:43:53.966Z,94806.63
2022-10-12T23:46:20.554Z,94802.75
2022-10-12T23:48:46.937Z,94802.75
2022-10-12T23:51:13.394Z,94806.19
2022-10-12T23:53:42.398Z,94799.69
2022-10-12T23:56:09.573Z,94803.38
2022-10-12T23:58:36.436Z,94801.34
